Time;durP1;ratioP1;P1;durP2;ratioP2;P2;SDS_P1;SDS_P2;PMS_P1;PMS_P2;Temp;Humidity;BMP_temperature;BMP_pressure;BME280_temperature;BME280_humidity;BME280_pressure;Samples;Min_cycle;Max_cycle;Signal;HPM_P1;HPM_P2
2023/07/30 00:04:32;;;;;;;0.60;0.40;;;;;;;;;;10192249;29;20052;-84
2023/07/30 00:09:35;;;;;;;0.88;0.45;;;;;;;;;;10186335;29;20131;-83
2023/07/30 00:14:39;;;;;;;2.08;0.50;;;;;;;;;;10191420;29;20091;-86
2023/07/30 00:19:43;;;;;;;0.50;0.30;;;;;;;;;;10189022;29;20102;-85
2023/07/30 00:24:47;;;;;;;0.95;0.57;;;;;;;;;;10173062;29;20052;-83
2023/07/30 00:29:50;;;;;;;0.75;0.50;;;;;;;;;;10195272;29;20131;-85
2023/07/30 00:34:55;;;;;;;0.55;0.40;;;;;;;;;;10186419;29;20111;-84
2023/07/30 00:39:58;;;;;;;0.52;0.45;;;;;;;;;;10184370;29;20052;-85
2023/07/30 00:45:04;;;;;;;1.30;0.40;;;;;;;;;;10186944;29;20052;-86
2023/07/30 00:50:11;;;;;;;1.10;0.45;;;;;;;;;;10202763;29;20056;-87
2023/07/30 00:55:15;;;;;;;0.50;0.40;;;;;;;;;;10187869;29;20107;-85
2023/07/30 01:00:19;;;;;;;0.75;0.63;;;;;;;;;;10194852;29;20119;-85
2023/07/30 01:05:24;;;;;;;1.15;0.50;;;;;;;;;;10174594;29;20082;-85
2023/07/30 01:10:29;;;;;;;0.52;0.40;;;;;;;;;;10169272;29;20052;-84
2023/07/30 01:15:33;;;;;;;0.52;0.52;;;;;;;;;;10188727;29;20083;-86
2023/07/30 01:20:38;;;;;;;0.95;0.50;;;;;;;;;;10179764;29;20047;-85
2023/07/30 01:25:44;;;;;;;1.27;0.57;;;;;;;;;;10181014;29;20135;-85
2023/07/30 01:30:49;;;;;;;1.85;0.40;;;;;;;;;;10167719;29;20056;-87
2023/07/30 01:35:52;;;;;;;0.57;0.50;;;;;;;;;;10172883;29;21629;-85
2023/07/30 01:40:58;;;;;;;1.35;0.70;;;;;;;;;;10180617;29;20052;-83
2023/07/30 01:46:02;;;;;;;2.95;0.63;;;;;;;;;;10181337;29;20048;-84
2023/07/30 01:51:05;;;;;;;0.40;0.40;;;;;;;;;;10185352;29;20052;-86
2023/07/30 01:56:10;;;;;;;0.55;0.50;;;;;;;;;;10170626;29;20595;-84
2023/07/30 02:01:13;;;;;;;0.30;0.30;;;;;;;;;;10178610;29;20566;-84
2023/07/30 02:06:16;;;;;;;1.17;0.55;;;;;;;;;;10157296;29;20746;-85
2023/07/30 02:11:21;;;;;;;1.73;0.60;;;;;;;;;;10171637;29;20051;-84
2023/07/30 02:16:25;;;;;;;2.65;0.45;;;;;;;;;;10174325;29;20507;-83
2023/07/30 02:21:30;;;;;;;0.80;0.40;;;;;;;;;;10164994;29;20108;-83
2023/07/30 02:26:34;;;;;;;0.55;0.52;;;;;;;;;;10152381;29;20132;-86
2023/07/30 02:31:38;;;;;;;0.50;0.47;;;;;;;;;;10172448;29;20051;-85
2023/07/30 02:36:44;;;;;;;1.63;0.40;;;;;;;;;;10195595;29;20112;-86
2023/07/30 02:41:49;;;;;;;1.23;0.38;;;;;;;;;;10172565;29;20056;-84
2023/07/30 02:46:52;;;;;;;1.58;0.50;;;;;;;;;;10163996;29;20150;-83
2023/07/30 02:51:56;;;;;;;1.40;0.40;;;;;;;;;;10168243;29;20114;-84
2023/07/30 02:57:00;;;;;;;2.40;0.50;;;;;;;;;;10169090;29;20056;-83
2023/07/30 03:02:05;;;;;;;1.55;0.80;;;;;;;;;;10175080;29;20086;-83
2023/07/30 03:07:09;;;;;;;0.85;0.50;;;;;;;;;;10169939;29;20047;-82
2023/07/30 03:12:14;;;;;;;1.73;0.57;;;;;;;;;;10176785;29;20128;-83
2023/07/30 03:17:17;;;;;;;0.65;0.32;;;;;;;;;;10169567;29;20468;-83
2023/07/30 06:25:16;;;;;;;0.30;0.30;;;;;;;;;;10150854;29;20593;-91
2023/07/30 06:30:20;;;;;;;0.40;0.40;;;;;;;;;;10165132;29;20056;-91
2023/07/30 06:35:23;;;;;;;0.60;0.40;;;;;;;;;;10153665;29;20586;-91
2023/07/30 06:40:29;;;;;;;0.88;0.70;;;;;;;;;;10158643;29;20071;-92
2023/07/30 06:45:33;;;;;;;0.40;0.40;;;;;;;;;;10173749;29;20043;-92
2023/07/30 06:50:37;;;;;;;0.60;0.52;;;;;;;;;;10152240;29;20289;-91
2023/07/30 06:55:42;;;;;;;0.50;0.50;;;;;;;;;;10174877;29;20135;-92
2023/07/30 07:00:46;;;;;;;0.57;0.57;;;;;;;;;;10150510;29;20052;-91
2023/07/30 07:05:54;;;;;;;0.55;0.55;;;;;;;;;;10153000;29;20055;-91
2023/07/30 07:11:00;;;;;;;1.00;0.57;;;;;;;;;;10158093;29;20078;-91
2023/07/30 07:16:10;;;;;;;0.32;0.32;;;;;;;;;;10154044;29;20060;-92
2023/07/30 07:21:13;;;;;;;0.55;0.43;;;;;;;;;;10176515;29;20087;-92
2023/07/30 07:26:18;;;;;;;1.00;0.38;;;;;;;;;;10151996;29;20570;-92
2023/07/30 07:31:22;;;;;;;0.52;0.30;;;;;;;;;;10191584;29;20058;-89
2023/07/30 07:36:25;;;;;;;0.82;0.55;;;;;;;;;;10162721;29;20143;-88
2023/07/30 07:41:30;;;;;;;0.63;0.60;;;;;;;;;;10160395;29;20644;-90
2023/07/30 07:46:41;;;;;;;1.03;0.47;;;;;;;;;;10169688;29;20056;-93
2023/07/30 07:51:55;;;;;;;0.57;0.45;;;;;;;;;;10155339;29;20302;-94
2023/07/30 07:57:29;;;;;;;0.40;0.40;;;;;;;;;;10155704;29;20054;-93
2023/07/30 08:02:33;;;;;;;0.70;0.40;;;;;;;;;;10178237;29;20052;-94
2023/07/30 08:07:37;;;;;;;0.50;0.40;;;;;;;;;;10170460;29;20083;-94
2023/07/30 08:12:42;;;;;;;0.73;0.68;;;;;;;;;;10209758;29;20051;-94
2023/07/30 08:17:46;;;;;;;0.50;0.50;;;;;;;;;;10183520;29;20056;-93
2023/07/30 08:22:52;;;;;;;0.85;0.32;;;;;;;;;;10162022;29;20048;-94
2023/07/30 08:27:58;;;;;;;0.90;0.63;;;;;;;;;;10186124;29;20420;-93
2023/07/30 08:33:02;;;;;;;2.60;0.88;;;;;;;;;;10203020;29;20048;-94
2023/07/30 08:38:06;;;;;;;1.77;0.77;;;;;;;;;;10204105;29;20527;-93
2023/07/30 08:43:11;;;;;;;0.77;0.50;;;;;;;;;;10221896;29;20079;-94
2023/07/30 08:48:15;;;;;;;0.30;0.30;;;;;;;;;;10181193;29;20080;-94
2023/07/30 08:53:19;;;;;;;0.57;0.10;;;;;;;;;;10188655;29;20115;-93
2023/07/30 08:58:59;;;;;;;1.00;0.30;;;;;;;;;;10174556;29;20056;-93
2023/07/30 09:09:52;;;;;;;1.10;0.17;;;;;;;;;;10162834;29;20056;-93
2023/07/30 09:20:25;;;;;;;1.65;0.60;;;;;;;;;;10175782;29;20104;-93
2023/07/30 09:30:53;;;;;;;1.60;0.50;;;;;;;;;;10124813;29;20143;-94
2023/07/30 09:36:10;;;;;;;0.50;0.50;;;;;;;;;;10169200;29;20058;-93
2023/07/30 09:41:21;;;;;;;0.55;0.30;;;;;;;;;;10139409;29;20079;-91
2023/07/30 09:46:32;;;;;;;2.38;0.57;;;;;;;;;;10137878;29;20056;-92
2023/07/30 09:51:37;;;;;;;2.50;0.85;;;;;;;;;;10152234;29;20052;-93
2023/07/30 09:56:44;;;;;;;1.83;0.50;;;;;;;;;;10150801;29;20431;-93
2023/07/30 10:01:52;;;;;;;2.58;0.95;;;;;;;;;;10151588;29;20052;-92
2023/07/30 10:07:00;;;;;;;1.50;0.80;;;;;;;;;;10150649;29;20868;-93
2023/07/30 10:12:05;;;;;;;1.35;0.80;;;;;;;;;;10150836;29;20056;-92
2023/07/30 10:17:12;;;;;;;1.27;0.85;;;;;;;;;;10181595;29;20047;-92
2023/07/30 10:22:24;;;;;;;2.40;0.85;;;;;;;;;;10152401;29;20044;-94
2023/07/30 10:27:36;;;;;;;4.90;1.30;;;;;;;;;;10150019;29;20435;-90
2023/07/30 10:32:59;;;;;;;1.83;1.00;;;;;;;;;;10163294;29;20090;-92
2023/07/30 10:38:14;;;;;;;2.03;0.77;;;;;;;;;;10182633;29;20044;-91
2023/07/30 10:43:18;;;;;;;6.20;1.40;;;;;;;;;;10133686;29;20058;-91
2023/07/30 10:48:33;;;;;;;4.35;1.25;;;;;;;;;;10148724;29;20059;-91
2023/07/30 10:53:39;;;;;;;4.35;1.30;;;;;;;;;;10187721;29;20550;-91
2023/07/30 10:58:45;;;;;;;3.28;1.38;;;;;;;;;;10156408;29;20100;-90
2023/07/30 11:03:51;;;;;;;8.27;2.20;;;;;;;;;;10159084;29;20044;-91
2023/07/30 11:08:55;;;;;;;4.97;1.45;;;;;;;;;;10174414;29;20110;-90
2023/07/30 11:13:59;;;;;;;3.90;1.17;;;;;;;;;;10175762;29;20044;-92
2023/07/30 11:19:10;;;;;;;2.58;1.20;;;;;;;;;;10147387;29;20058;-91
2023/07/30 11:24:13;;;;;;;3.47;0.98;;;;;;;;;;10172788;29;20055;-90
2023/07/30 11:29:17;;;;;;;2.13;0.90;;;;;;;;;;10146128;29;20056;-89
2023/07/30 11:34:22;;;;;;;4.05;1.15;;;;;;;;;;10169695;29;20060;-89
2023/07/30 11:39:28;;;;;;;2.63;1.00;;;;;;;;;;10157962;29;20043;-89
2023/07/30 11:44:37;;;;;;;3.38;1.00;;;;;;;;;;10144832;29;20040;-89
2023/07/30 11:49:55;;;;;;;3.55;1.20;;;;;;;;;;10160866;29;20063;-90
2023/07/30 11:55:02;;;;;;;1.55;0.70;;;;;;;;;;10157170;29;20415;-88
2023/07/30 12:00:09;;;;;;;3.40;1.25;;;;;;;;;;10165499;29;20052;-88
2023/07/30 12:05:18;;;;;;;2.97;0.95;;;;;;;;;;10181698;29;20131;-89
2023/07/30 12:10:21;;;;;;;;;;;;;;;;;;10155951;29;20068;-89
2023/07/30 12:15:25;;;;;;;3.35;0.93;;;;;;;;;;10165228;29;19927;-88
2023/07/30 12:20:50;;;;;;;2.42;0.70;;;;;;;;;;10178560;29;20047;-88
2023/07/30 12:25:54;;;;;;;2.05;0.90;;;;;;;;;;10158553;29;20060;-87
2023/07/30 12:30:58;;;;;;;3.95;1.40;;;;;;;;;;10160843;29;20110;-88
2023/07/30 12:36:03;;;;;;;3.67;1.00;;;;;;;;;;10156326;29;20262;-88
2023/07/30 12:41:06;;;;;;;3.72;1.30;;;;;;;;;;10150905;29;20056;-88
2023/07/30 12:46:09;;;;;;;3.25;1.15;;;;;;;;;;10175887;29;20463;-88
2023/07/30 12:51:14;;;;;;;1.92;0.77;;;;;;;;;;10185764;29;20067;-87
2023/07/30 12:56:20;;;;;;;3.65;1.23;;;;;;;;;;10186403;29;20048;-87
2023/07/30 13:01:24;;;;;;;1.70;0.80;;;;;;;;;;10142011;29;20111;-89
2023/07/30 13:06:29;;;;;;;2.30;0.90;;;;;;;;;;10171183;29;20058;-89
2023/07/30 13:11:32;;;;;;;2.90;0.88;;;;;;;;;;10178155;29;20110;-87
2023/07/30 13:16:35;;;;;;;6.45;1.30;;;;;;;;;;10163556;29;20060;-87
2023/07/30 13:21:42;;;;;;;2.83;1.00;;;;;;;;;;10195594;29;20118;-88
2023/07/30 13:26:45;;;;;;;2.55;1.13;;;;;;;;;;10172028;29;20055;-88
2023/07/30 13:31:48;;;;;;;2.83;1.10;;;;;;;;;;10174397;29;20419;-86
2023/07/30 13:36:53;;;;;;;4.72;1.15;;;;;;;;;;10151703;29;20063;-88
2023/07/30 13:41:57;;;;;;;2.47;1.00;;;;;;;;;;10180917;29;20048;-87
2023/07/30 13:47:00;;;;;;;6.68;1.33;;;;;;;;;;10175406;29;20560;-87
2023/07/30 13:52:06;;;;;;;2.63;1.10;;;;;;;;;;10163809;29;20493;-87
2023/07/30 13:57:10;;;;;;;;;;;;;;;;;;10160317;29;20067;-88
2023/07/30 14:02:13;;;;;;;5.03;1.25;;;;;;;;;;10166303;29;19927;-87
2023/07/30 14:07:18;;;;;;;2.17;0.73;;;;;;;;;;10170403;29;20064;-88
2023/07/30 14:12:21;;;;;;;2.85;0.70;;;;;;;;;;10165222;29;20068;-86
2023/07/30 14:17:25;;;;;;;3.53;0.90;;;;;;;;;;10172309;29;20559;-87
2023/07/30 14:22:29;;;;;;;5.07;1.38;;;;;;;;;;10180543;29;20083;-86
2023/07/30 14:27:33;;;;;;;5.10;1.15;;;;;;;;;;10173279;29;20099;-87
2023/07/30 14:32:36;;;;;;;3.40;1.13;;;;;;;;;;10150818;29;20052;-88
2023/07/30 14:37:41;;;;;;;2.42;1.10;;;;;;;;;;10178101;29;20091;-87
2023/07/30 14:42:45;;;;;;;2.13;0.80;;;;;;;;;;10165600;29;20130;-86
2023/07/30 14:47:48;;;;;;;4.60;1.00;;;;;;;;;;10149520;29;20112;-86
2023/07/30 14:52:53;;;;;;;5.05;1.35;;;;;;;;;;10175498;29;20131;-87
2023/07/30 14:57:57;;;;;;;1.73;0.97;;;;;;;;;;10167210;29;20044;-89
2023/07/30 15:03:00;;;;;;;2.67;1.10;;;;;;;;;;10162989;29;20048;-86
2023/07/30 15:08:05;;;;;;;2.35;1.00;;;;;;;;;;10161389;29;20050;-86
2023/07/30 15:13:09;;;;;;;4.73;1.20;;;;;;;;;;10188535;29;20048;-88
2023/07/30 15:18:12;;;;;;;3.53;1.30;;;;;;;;;;10178860;29;20539;-87
2023/07/30 15:23:18;;;;;;;2.35;1.15;;;;;;;;;;10192378;29;20748;-86
2023/07/30 15:28:22;;;;;;;2.72;1.10;;;;;;;;;;10175372;29;20059;-86
2023/07/30 15:33:28;;;;;;;1.75;0.88;;;;;;;;;;10189952;29;20044;-86
2023/07/30 15:38:32;;;;;;;;;;;;;;;;;;10178471;29;20055;-89
2023/07/30 15:43:35;;;;;;;3.50;1.15;;;;;;;;;;10162906;29;19962;-86
2023/07/30 15:48:39;;;;;;;2.58;0.82;;;;;;;;;;10153873;29;20055;-86
2023/07/30 15:53:48;;;;;;;4.25;1.20;;;;;;;;;;10140434;29;20052;-86
2023/07/30 15:58:51;;;;;;;1.77;0.70;;;;;;;;;;10147367;29;20130;-88
2023/07/30 16:03:56;;;;;;;3.00;1.25;;;;;;;;;;10170865;29;20056;-86
2023/07/30 16:09:01;;;;;;;2.88;1.00;;;;;;;;;;10186589;29;20039;-87
2023/07/30 16:14:05;;;;;;;4.37;1.07;;;;;;;;;;10153110;29;20074;-87
2023/07/30 16:19:08;;;;;;;10.43;4.53;;;;;;;;;;10171104;29;20063;-86
2023/07/30 16:24:16;;;;;;;4.50;2.30;;;;;;;;;;10157272;29;20044;-86
2023/07/30 16:29:20;;;;;;;5.13;2.53;;;;;;;;;;10154998;29;20397;-87
2023/07/30 16:34:23;;;;;;;5.70;2.10;;;;;;;;;;10169202;29;20052;-88
2023/07/30 16:39:30;;;;;;;6.40;2.88;;;;;;;;;;10147128;29;20060;-87
2023/07/30 16:44:34;;;;;;;8.32;2.97;;;;;;;;;;10166858;29;20052;-88
2023/07/30 16:49:37;;;;;;;5.45;1.85;;;;;;;;;;10176628;29;20699;-87
2023/07/30 16:54:42;;;;;;;3.50;1.30;;;;;;;;;;10192395;29;20170;-87
2023/07/30 16:59:46;;;;;;;8.75;3.67;;;;;;;;;;10183541;29;20056;-87
2023/07/30 17:04:49;;;;;;;3.60;1.35;;;;;;;;;;10194697;29;20052;-88
2023/07/30 17:09:54;;;;;;;2.53;1.15;;;;;;;;;;10158528;29;20679;-88
2023/07/30 17:14:57;;;;;;;4.70;1.10;;;;;;;;;;10170434;29;20077;-86
2023/07/30 17:20:01;;;;;;;3.63;1.00;;;;;;;;;;10158134;29;20057;-87
2023/07/30 17:25:07;;;;;;;3.70;1.00;;;;;;;;;;10145957;29;20056;-87
2023/07/30 17:30:11;;;;;;;;;;;;;;;;;;10148906;29;20091;-86
2023/07/30 17:35:14;;;;;;;3.40;1.20;;;;;;;;;;10147624;29;19938;-89
2023/07/30 17:40:19;;;;;;;2.50;1.15;;;;;;;;;;10154070;29;20071;-88
2023/07/30 17:45:22;;;;;;;2.88;1.20;;;;;;;;;;10166741;29;20048;-88
2023/07/30 17:50:26;;;;;;;2.90;1.00;;;;;;;;;;10162520;29;20052;-87
2023/07/30 17:55:32;;;;;;;1.13;1.00;;;;;;;;;;10177107;29;20083;-86
2023/07/30 18:00:39;;;;;;;1.92;0.93;;;;;;;;;;10159703;29;20055;-87
2023/07/30 18:05:46;;;;;;;6.38;1.33;;;;;;;;;;10151463;29;20537;-88
2023/07/30 18:10:52;;;;;;;3.45;0.98;;;;;;;;;;10166661;29;20530;-87
2023/07/30 18:15:55;;;;;;;1.25;0.60;;;;;;;;;;10174670;29;20063;-87
2023/07/30 18:20:59;;;;;;;2.60;1.25;;;;;;;;;;10139006;29;20101;-87
2023/07/30 18:26:05;;;;;;;2.78;1.00;;;;;;;;;;10159174;29;20044;-87
2023/07/30 18:31:16;;;;;;;3.13;1.20;;;;;;;;;;10148321;29;20044;-86
2023/07/30 18:36:23;;;;;;;3.35;1.20;;;;;;;;;;10159666;29;20661;-87
2023/07/30 18:41:29;;;;;;;3.72;1.30;;;;;;;;;;10160525;29;20076;-88
2023/07/30 18:46:35;;;;;;;2.75;1.10;;;;;;;;;;10148641;29;20135;-87
2023/07/30 18:51:41;;;;;;;2.80;0.88;;;;;;;;;;10180225;29;20062;-87
2023/07/30 18:56:46;;;;;;;2.83;0.85;;;;;;;;;;10150894;29;20048;-86
2023/07/30 19:02:00;;;;;;;2.65;1.00;;;;;;;;;;10154071;29;20060;-87
2023/07/30 19:07:09;;;;;;;3.78;1.10;;;;;;;;;;10161393;29;20052;-87
2023/07/30 19:12:15;;;;;;;1.95;0.90;;;;;;;;;;10165742;29;20447;-87
2023/07/30 19:17:21;;;;;;;2.38;0.90;;;;;;;;;;10179403;29;20124;-87
2023/07/30 19:22:27;;;;;;;2.78;0.90;;;;;;;;;;10157576;29;20052;-87
2023/07/30 19:27:34;;;;;;;;;;;;;;;;;;10149961;29;20044;-86
2023/07/30 19:32:38;;;;;;;1.80;0.73;;;;;;;;;;10156959;29;19926;-87
2023/07/30 19:37:42;;;;;;;1.58;0.70;;;;;;;;;;10155932;29;20047;-88
2023/07/30 19:42:51;;;;;;;;;;;;;;;;;;10186664;29;20052;-87
2023/07/30 19:47:56;;;;;;;3.33;0.90;;;;;;;;;;10149150;29;19930;-87
2023/07/30 19:53:03;;;;;;;1.63;0.70;;;;;;;;;;10161900;29;20055;-87
2023/07/30 19:58:27;;;;;;;1.83;0.60;;;;;;;;;;10160502;29;20574;-85
2023/07/30 20:03:31;;;;;;;0.57;0.47;;;;;;;;;;10159014;29;20095;-86
2023/07/30 20:08:38;;;;;;;1.17;0.52;;;;;;;;;;10164063;29;20108;-88
2023/07/30 20:13:48;;;;;;;1.40;0.60;;;;;;;;;;10154872;29;20499;-86
2023/07/30 20:18:54;;;;;;;1.52;0.70;;;;;;;;;;10153122;29;20079;-88
2023/07/30 20:23:59;;;;;;;1.97;0.70;;;;;;;;;;10182264;29;20055;-86
2023/07/30 20:29:07;;;;;;;1.33;0.60;;;;;;;;;;10162071;29;20367;-86
2023/07/30 20:34:13;;;;;;;1.50;0.60;;;;;;;;;;10159385;29;20135;-86
2023/07/30 20:39:16;;;;;;;1.05;0.50;;;;;;;;;;10185376;29;20107;-85
2023/07/30 20:44:22;;;;;;;0.90;0.50;;;;;;;;;;10167255;29;20055;-85
2023/07/30 20:49:31;;;;;;;2.35;0.70;;;;;;;;;;10155265;29;20072;-87
2023/07/30 20:54:34;;;;;;;1.70;0.45;;;;;;;;;;10185199;29;20123;-87
2023/07/30 20:59:41;;;;;;;0.50;0.40;;;;;;;;;;10174711;29;20143;-87
2023/07/30 21:04:44;;;;;;;1.10;0.50;;;;;;;;;;10158972;29;20059;-89
2023/07/30 21:09:48;;;;;;;0.40;0.22;;;;;;;;;;10188447;29;20055;-89
2023/07/30 21:14:52;;;;;;;0.55;0.40;;;;;;;;;;10154481;29;20111;-89
2023/07/30 21:19:56;;;;;;;1.38;0.40;;;;;;;;;;10155492;29;20063;-88
2023/07/30 21:24:59;;;;;;;2.00;0.40;;;;;;;;;;10154169;29;20052;-89
2023/07/30 21:30:06;;;;;;;0.60;0.35;;;;;;;;;;10168368;29;20055;-88
2023/07/30 21:35:10;;;;;;;1.95;0.50;;;;;;;;;;10175925;29;20059;-92
2023/07/30 21:40:13;;;;;;;1.23;0.40;;;;;;;;;;10177617;29;20047;-89
2023/07/30 21:45:18;;;;;;;0.70;0.40;;;;;;;;;;10160665;29;20051;-89
2023/07/30 21:50:22;;;;;;;0.40;0.40;;;;;;;;;;10179279;29;20503;-88
2023/07/30 21:55:25;;;;;;;0.93;0.47;;;;;;;;;;10160631;29;20121;-89
2023/07/30 22:00:30;;;;;;;0.43;0.30;;;;;;;;;;10168349;29;20118;-89
2023/07/30 22:05:34;;;;;;;0.68;0.40;;;;;;;;;;10174012;29;20044;-91
2023/07/30 22:10:41;;;;;;;0.50;0.43;;;;;;;;;;10166218;29;20119;-89
2023/07/30 22:15:47;;;;;;;1.60;0.47;;;;;;;;;;10182181;29;20111;-90
2023/07/30 22:20:50;;;;;;;1.58;0.40;;;;;;;;;;10156974;29;20058;-88
2023/07/30 22:25:54;;;;;;;1.60;0.50;;;;;;;;;;10163558;29;20428;-92
2023/07/30 22:30:59;;;;;;;0.80;0.32;;;;;;;;;;10155428;29;20063;-90
2023/07/30 22:36:03;;;;;;;1.63;0.60;;;;;;;;;;10162221;29;20562;-88
2023/07/30 22:41:06;;;;;;;0.88;0.30;;;;;;;;;;10180140;29;20059;-89
2023/07/30 22:46:11;;;;;;;1.02;0.77;;;;;;;;;;10158624;29;20150;-88
2023/07/30 22:51:14;;;;;;;1.77;0.47;;;;;;;;;;10151294;29;20787;-87
2023/07/30 22:56:18;;;;;;;1.10;0.52;;;;;;;;;;10154571;29;20051;-87
2023/07/30 23:01:23;;;;;;;0.88;0.50;;;;;;;;;;10151558;29;20072;-89
2023/07/30 23:06:27;;;;;;;0.35;0.28;;;;;;;;;;10172332;29;20048;-88
2023/07/30 23:11:31;;;;;;;0.57;0.32;;;;;;;;;;10159068;29;20052;-89
2023/07/30 23:16:38;;;;;;;1.38;0.68;;;;;;;;;;10146372;29;20166;-90
2023/07/30 23:21:41;;;;;;;0.98;0.50;;;;;;;;;;10158218;29;20633;-87
2023/07/30 23:26:45;;;;;;;1.92;0.50;;;;;;;;;;10156666;29;20055;-88
2023/07/30 23:31:49;;;;;;;3.40;1.10;;;;;;;;;;10166088;29;20104;-88
2023/07/30 23:36:53;;;;;;;3.45;1.15;;;;;;;;;;10147253;29;20130;-88
2023/07/30 23:41:57;;;;;;;1.90;0.85;;;;;;;;;;10176275;29;20055;-86
2023/07/30 23:47:01;;;;;;;2.40;1.30;;;;;;;;;;10177222;29;20060;-86
2023/07/30 23:52:06;;;;;;;2.30;1.00;;;;;;;;;;10165549;29;20059;-87
2023/07/30 23:57:09;;;;;;;4.10;1.20;;;;;;;;;;10174091;29;20551;-86
